Time;durP1;ratioP1;P1;durP2;ratioP2;P2;SDS_P1;SDS_P2;PMS_P1;PMS_P2;Temp;Humidity;BMP_temperature;BMP_pressure;BME280_temperature;BME280_humidity;BME280_pressure;Samples;Min_cycle;Max_cycle;Signal;HPM_P1;HPM_P2
2022/12/13 00:00:35;;;;;;;17.07;11.70;;;-1.10;99.90;;;;;;5020111;28;20221;-69
2022/12/13 00:03:01;;;;;;;15.10;10.70;;;-1.00;99.90;;;;;;5021206;28;20203;-69
2022/12/13 00:05:26;;;;;;;15.67;12.40;;;-1.00;99.90;;;;;;5016762;28;20231;-63
2022/12/13 00:07:51;;;;;;;13.00;9.27;;;-1.00;99.90;;;;;;5006933;28;20335;-70
2022/12/13 00:10:17;;;;;;;22.33;13.30;;;-1.10;99.90;;;;;;5017320;28;20428;-68
2022/12/13 00:12:42;;;;;;;19.03;12.67;;;-1.00;99.90;;;;;;4999491;28;20204;-74
2022/12/13 00:15:08;;;;;;;13.37;9.57;;;-1.00;99.90;;;;;;5009759;28;20207;-63
2022/12/13 00:17:34;;;;;;;14.83;11.00;;;-1.00;99.90;;;;;;5007023;28;20971;-56
2022/12/13 00:19:59;;;;;;;16.20;11.43;;;-1.00;99.90;;;;;;5008341;28;20282;-56
2022/12/13 00:22:25;;;;;;;18.93;12.20;;;-1.00;99.90;;;;;;5005483;28;20616;-65
2022/12/13 00:24:54;;;;;;;17.90;12.30;;;-1.00;99.90;;;;;;5011959;28;20278;-55
2022/12/13 00:27:19;;;;;;;18.60;12.40;;;-1.00;99.90;;;;;;5004737;28;20226;-59
2022/12/13 00:29:45;;;;;;;18.90;12.40;;;-0.90;99.90;;;;;;5004084;28;20208;-56
2022/12/13 00:32:10;;;;;;;20.80;11.67;;;-0.90;99.90;;;;;;5003774;28;20214;-58
2022/12/13 00:34:36;;;;;;;19.50;12.07;;;-0.90;99.90;;;;;;5005750;28;20199;-57
2022/12/13 00:37:01;;;;;;;15.70;11.43;;;-0.90;99.90;;;;;;5005193;28;20276;-62
2022/12/13 00:39:27;;;;;;;15.83;10.97;;;-1.00;99.90;;;;;;5004963;28;20733;-57
2022/12/13 00:41:53;;;;;;;17.87;10.57;;;-0.90;99.90;;;;;;5003523;28;20214;-58
2022/12/13 00:44:18;;;;;;;11.60;9.53;;;-1.00;99.90;;;;;;5002886;28;20197;-58
2022/12/13 00:46:44;;;;;;;11.73;8.67;;;-1.00;99.90;;;;;;5013684;28;20205;-60
2022/12/13 00:49:11;;;;;;;15.37;10.10;;;-1.00;99.90;;;;;;5000602;28;20220;-63
2022/12/13 00:51:37;;;;;;;14.60;9.50;;;-1.10;99.90;;;;;;5004230;28;20204;-59
2022/12/13 00:54:02;;;;;;;15.93;10.63;;;-1.00;99.90;;;;;;5008235;28;20208;-56
2022/12/13 00:56:30;;;;;;;14.33;9.73;;;-1.00;99.90;;;;;;5001201;28;20789;-63
2022/12/13 00:58:56;;;;;;;14.97;8.60;;;-1.10;99.90;;;;;;5003102;28;20227;-65
2022/12/13 01:01:28;;;;;;;14.33;9.13;;;-1.10;99.90;;;;;;5006301;28;20192;-59
2022/12/13 01:03:55;;;;;;;15.13;10.07;;;-1.00;99.90;;;;;;5007493;28;20285;-57
2022/12/13 01:06:26;;;;;;;13.17;9.53;;;-1.10;99.90;;;;;;5009719;28;20204;-61
2022/12/13 01:08:51;;;;;;;15.23;9.97;;;-1.10;99.90;;;;;;5011438;28;20229;-63
2022/12/13 01:11:17;;;;;;;15.23;8.77;;;-1.10;99.90;;;;;;5013407;28;20413;-56
2022/12/13 01:13:43;;;;;;;14.57;9.27;;;-1.00;99.90;;;;;;5012631;28;20682;-60
2022/12/13 01:16:11;;;;;;;13.40;10.60;;;-1.00;99.90;;;;;;5024366;28;20199;-59
2022/12/13 01:18:37;;;;;;;13.33;8.80;;;-1.00;99.90;;;;;;5020583;28;20199;-57
2022/12/13 01:21:11;;;;;;;13.40;9.37;;;-1.00;99.90;;;;;;5015637;28;20199;-64
2022/12/13 01:23:36;;;;;;;18.53;13.07;;;-1.00;99.90;;;;;;5006200;28;20611;-61
2022/12/13 01:26:08;;;;;;;18.90;12.33;;;-1.00;99.90;;;;;;5007878;28;20705;-60
2022/12/13 01:28:33;;;;;;;16.00;10.83;;;-1.00;99.90;;;;;;5008048;28;20226;-62
2022/12/13 01:31:02;;;;;;;22.80;13.13;;;-1.00;99.90;;;;;;5006040;28;20200;-57
2022/12/13 01:33:29;;;;;;;18.03;11.60;;;-1.10;99.90;;;;;;5009445;28;20199;-60
2022/12/13 01:35:55;;;;;;;19.50;12.67;;;-1.10;99.90;;;;;;5017226;28;20208;-57
2022/12/13 01:38:21;;;;;;;20.00;12.93;;;-1.10;99.90;;;;;;5014511;28;20608;-62
2022/12/13 01:40:56;;;;;;;21.27;13.40;;;-1.10;99.90;;;;;;5008856;28;20210;-60
2022/12/13 01:43:23;;;;;;;22.43;12.90;;;-1.10;99.90;;;;;;5005747;28;20205;-64
2022/12/13 01:45:48;;;;;;;17.73;11.73;;;-1.10;99.90;;;;;;5008640;28;20258;-53
2022/12/13 01:48:19;;;;;;;17.90;11.17;;;-1.10;99.90;;;;;;5013752;28;20212;-52
2022/12/13 01:50:49;;;;;;;18.07;12.07;;;-1.10;99.90;;;;;;5017375;28;20929;-52
2022/12/13 01:53:20;;;;;;;20.10;12.50;;;-1.00;99.90;;;;;;5012761;28;20772;-53
2022/12/13 01:55:49;;;;;;;18.93;12.50;;;-1.00;99.90;;;;;;5015562;28;20208;-52
2022/12/13 01:58:15;;;;;;;18.07;11.80;;;-0.90;99.90;;;;;;5017884;28;20227;-52
2022/12/13 02:00:42;;;;;;;19.33;12.43;;;-0.90;99.90;;;;;;5023209;28;20180;-52
2022/12/13 02:03:08;;;;;;;19.87;12.60;;;-0.90;99.90;;;;;;5023201;28;20210;-51
2022/12/13 02:05:39;;;;;;;19.77;10.80;;;-0.90;99.90;;;;;;5023102;28;20298;-51
2022/12/13 02:08:07;;;;;;;14.30;10.50;;;-0.90;99.90;;;;;;5022997;28;20773;-51
2022/12/13 02:10:33;;;;;;;19.77;13.57;;;-0.90;99.90;;;;;;5023213;28;20182;-52
2022/12/13 02:12:58;;;;;;;18.63;12.20;;;-1.00;99.90;;;;;;5023834;28;20182;-51
2022/12/13 02:15:33;;;;;;;20.00;13.47;;;-1.00;99.90;;;;;;5022997;28;20175;-52
2022/12/13 02:18:25;;;;;;;19.23;13.53;;;-1.00;99.90;;;;;;5023462;28;20458;-51
2022/12/13 02:21:01;;;;;;;20.77;12.77;;;-1.00;99.90;;;;;;5022985;28;20271;-51
2022/12/13 02:23:58;;;;;;;17.13;11.60;;;-0.90;99.90;;;;;;5023078;28;20205;-52
2022/12/13 02:26:43;;;;;;;20.27;11.63;;;-0.90;99.90;;;;;;5019950;28;20295;-52
2022/12/13 02:29:27;;;;;;;21.40;13.20;;;-0.90;99.90;;;;;;5020928;28;20224;-52
2022/12/13 02:32:22;;;;;;;21.40;12.13;;;-1.00;99.90;;;;;;5020106;28;20766;-51
2022/12/13 02:35:01;;;;;;;17.40;12.37;;;-1.00;99.90;;;;;;5014390;28;20203;-51
2022/12/13 02:37:54;;;;;;;19.17;12.50;;;-1.00;99.90;;;;;;5005430;28;20212;-52
2022/12/13 02:40:25;;;;;;;19.30;11.03;;;-1.00;99.90;;;;;;5008183;28;20323;-52
2022/12/13 02:43:26;;;;;;;21.20;14.87;;;-0.90;99.90;;;;;;5005949;28;20655;-52
2022/12/13 02:45:56;;;;;;;19.10;13.17;;;-0.90;99.90;;;;;;5009715;28;20215;-51
2022/12/13 02:48:26;;;;;;;18.83;12.60;;;-0.90;99.90;;;;;;5006501;28;20240;-53
2022/12/13 02:50:53;;;;;;;18.13;13.63;;;-0.90;99.90;;;;;;5006601;28;20261;-68
2022/12/13 02:53:20;;;;;;;18.23;11.43;;;-0.90;99.90;;;;;;5010943;28;20571;-52
2022/12/13 02:55:46;;;;;;;20.87;14.90;;;-1.00;99.90;;;;;;5008027;28;20684;-52
2022/12/13 02:58:14;;;;;;;21.53;14.00;;;-1.00;99.90;;;;;;5007538;28;20694;-51
2022/12/13 03:01:09;;;;;;;23.83;13.50;;;-1.10;99.90;;;;;;5010073;28;20231;-51
2022/12/13 03:03:34;;;;;;;20.23;13.23;;;-1.10;99.90;;;;;;5005474;28;20776;-52
2022/12/13 03:06:37;;;;;;;20.30;12.93;;;-1.10;99.90;;;;;;5010049;28;20308;-52
2022/12/13 03:09:16;;;;;;;20.57;14.23;;;-1.10;99.90;;;;;;5008851;28;20691;-52
2022/12/13 03:15:11;;;;;;;19.40;13.53;;;-1.10;99.90;;;;;;5007644;28;20750;-51
2022/12/13 03:17:43;;;;;;;18.33;11.73;;;-1.10;99.90;;;;;;5006830;28;20635;-52
2022/12/13 03:20:09;;;;;;;19.87;14.23;;;-1.10;99.90;;;;;;5009608;28;20224;-52
2022/12/13 03:22:34;;;;;;;23.57;16.10;;;-1.10;99.90;;;;;;5006711;28;20579;-52
2022/12/13 03:25:00;;;;;;;22.30;14.53;;;-1.10;99.90;;;;;;5008620;28;20290;-52
2022/12/13 03:27:26;;;;;;;22.03;14.90;;;-1.10;99.90;;;;;;5008134;28;20689;-52
2022/12/13 03:29:52;;;;;;;21.03;13.77;;;-1.20;99.90;;;;;;5008815;28;20204;-52
2022/12/13 03:32:17;;;;;;;21.40;14.27;;;-1.10;99.90;;;;;;5021770;28;20257;-52
2022/12/13 03:34:43;;;;;;;20.67;13.17;;;-1.10;99.90;;;;;;5007684;28;20193;-52
2022/12/13 03:37:08;;;;;;;27.03;16.20;;;-1.10;99.90;;;;;;5009769;28;20247;-52
2022/12/13 03:39:34;;;;;;;19.60;13.97;;;-1.10;99.90;;;;;;5008023;28;20204;-53
2022/12/13 03:42:00;;;;;;;20.43;13.70;;;-1.20;99.90;;;;;;5011288;28;20262;-52
2022/12/13 03:44:25;;;;;;;20.60;13.20;;;-1.20;99.90;;;;;;5009034;28;20201;-53
2022/12/13 03:46:51;;;;;;;17.53;11.73;;;-1.10;99.90;;;;;;5007661;28;20202;-52
2022/12/13 03:49:17;;;;;;;20.30;14.47;;;-1.10;99.90;;;;;;5006551;28;20217;-51
2022/12/13 03:51:42;;;;;;;17.27;12.53;;;-1.10;99.90;;;;;;5008002;28;20201;-51
2022/12/13 03:54:08;;;;;;;15.07;11.03;;;-1.00;99.90;;;;;;5009434;28;20271;-51
2022/12/13 03:56:33;;;;;;;16.83;10.73;;;-1.00;99.90;;;;;;5005729;28;20215;-53
2022/12/13 03:58:59;;;;;;;16.67;10.33;;;-1.00;99.90;;;;;;5012723;28;20222;-52
2022/12/13 04:01:24;;;;;;;19.87;13.07;;;-1.00;99.90;;;;;;5001889;28;20193;-52
2022/12/13 04:03:50;;;;;;;17.60;12.43;;;-1.00;99.90;;;;;;5008577;28;20197;-51
2022/12/13 04:06:16;;;;;;;19.40;12.90;;;-1.10;99.90;;;;;;5008347;28;20224;-56
2022/12/13 04:08:41;;;;;;;16.23;9.70;;;-1.10;99.90;;;;;;5008021;28;20216;-51
2022/12/13 04:13:55;;;;;;;21.33;12.43;;;-1.10;99.90;;;;;;5010377;28;21252;-51
2022/12/13 04:16:21;;;;;;;19.63;12.53;;;-1.10;99.90;;;;;;5004382;28;20219;-52
2022/12/13 04:18:47;;;;;;;18.63;12.20;;;-1.00;99.90;;;;;;5010471;28;20268;-52
2022/12/13 04:21:12;;;;;;;19.80;14.13;;;-1.00;99.90;;;;;;5003530;28;20703;-52
2022/12/13 04:23:38;;;;;;;14.87;12.33;;;-1.00;99.90;;;;;;5017723;28;20564;-52
2022/12/13 04:26:03;;;;;;;21.47;13.53;;;-0.90;99.90;;;;;;5008142;28;20772;-52
2022/12/13 04:28:29;;;;;;;17.77;12.97;;;-1.00;99.90;;;;;;5008164;28;20215;-52
2022/12/13 04:30:54;;;;;;;20.70;12.83;;;-0.90;99.90;;;;;;5008856;28;20199;-52
2022/12/13 04:33:24;;;;;;;18.33;12.40;;;-0.90;99.90;;;;;;5007170;28;20215;-51
2022/12/13 04:35:50;;;;;;;19.47;12.93;;;-0.90;99.90;;;;;;5006496;28;20210;-52
2022/12/13 04:38:16;;;;;;;17.83;12.97;;;-0.90;99.90;;;;;;5007474;28;21030;-52
2022/12/13 04:40:41;;;;;;;15.70;10.90;;;-0.90;99.90;;;;;;5006631;28;20203;-52
2022/12/13 04:43:07;;;;;;;22.83;13.63;;;-0.90;99.90;;;;;;5010797;28;20209;-52
2022/12/13 04:45:32;;;;;;;19.03;12.80;;;-0.90;99.90;;;;;;5001483;28;20217;-52
2022/12/13 04:47:58;;;;;;;16.30;11.90;;;-0.90;99.90;;;;;;5010660;28;20752;-52
2022/12/13 04:50:23;;;;;;;17.60;12.97;;;-1.00;99.90;;;;;;5004441;28;20221;-53
2022/12/13 04:52:49;;;;;;;18.33;12.80;;;-0.90;99.90;;;;;;5007044;28;20337;-53
2022/12/13 04:55:14;;;;;;;16.20;10.17;;;-0.90;99.90;;;;;;5007677;28;20555;-53
2022/12/13 04:57:40;;;;;;;19.53;12.00;;;-1.00;99.90;;;;;;5006909;28;20847;-52
2022/12/13 05:00:09;;;;;;;17.87;12.97;;;-1.00;99.90;;;;;;5007257;28;20227;-52
2022/12/13 05:02:35;;;;;;;20.13;12.90;;;-1.00;99.90;;;;;;5006542;28;20676;-52
2022/12/13 05:05:00;;;;;;;21.57;12.50;;;-1.00;99.90;;;;;;5005797;28;20212;-57
2022/12/13 05:07:26;;;;;;;18.90;12.30;;;-1.00;99.90;;;;;;5006412;28;20535;-52
2022/12/13 05:09:52;;;;;;;18.73;12.23;;;-1.00;99.90;;;;;;5006466;28;20256;-52
2022/12/13 05:12:17;;;;;;;17.40;12.57;;;-0.90;99.90;;;;;;5006525;28;20196;-52
2022/12/13 05:14:43;;;;;;;19.53;11.73;;;-0.80;99.90;;;;;;5005140;28;20201;-52
2022/12/13 05:17:08;;;;;;;17.90;11.93;;;-0.80;99.90;;;;;;5006809;28;20198;-52
2022/12/13 05:19:34;;;;;;;16.30;10.93;;;-0.80;99.90;;;;;;5010089;28;20236;-55
2022/12/13 05:22:00;;;;;;;18.73;12.97;;;-0.90;99.90;;;;;;5004790;28;20250;-52
2022/12/13 05:24:25;;;;;;;16.03;11.13;;;-0.90;99.90;;;;;;5007247;28;20532;-52
2022/12/13 05:26:51;;;;;;;17.07;12.60;;;-0.80;99.90;;;;;;5006090;28;20896;-53
2022/12/13 05:29:17;;;;;;;21.63;13.27;;;-0.90;99.90;;;;;;5005525;28;20307;-52
2022/12/13 05:31:42;;;;;;;17.53;11.33;;;-0.80;99.90;;;;;;5005930;28;20696;-52
2022/12/13 05:34:08;;;;;;;22.50;14.10;;;-0.80;99.90;;;;;;5006048;28;20679;-52
2022/12/13 05:36:33;;;;;;;20.20;13.23;;;-0.90;99.90;;;;;;5008559;28;20201;-52
2022/12/13 05:38:58;;;;;;;20.57;12.53;;;-0.90;99.90;;;;;;5003022;28;20212;-52
2022/12/13 05:41:27;;;;;;;18.43;11.63;;;-1.00;99.90;;;;;;5005898;28;20550;-52
2022/12/13 05:43:53;;;;;;;15.03;11.23;;;-1.00;99.90;;;;;;5006401;28;20208;-52
2022/12/13 05:46:19;;;;;;;17.10;11.83;;;-1.00;99.90;;;;;;5006299;28;20200;-51
2022/12/13 05:48:44;;;;;;;17.83;12.23;;;-1.00;99.90;;;;;;5006251;28;20207;-52
2022/12/13 05:51:10;;;;;;;22.93;14.27;;;-1.10;99.90;;;;;;5006532;28;20192;-52
2022/12/13 05:53:36;;;;;;;17.47;12.73;;;-1.10;99.90;;;;;;5004513;28;20231;-52
2022/12/13 05:56:02;;;;;;;25.33;14.87;;;-1.10;99.90;;;;;;5005586;28;20353;-52
2022/12/13 05:58:28;;;;;;;18.83;12.90;;;-1.10;99.90;;;;;;5006893;28;20232;-52
2022/12/13 06:00:53;;;;;;;18.43;12.27;;;-1.10;99.90;;;;;;5003071;28;20205;-52
2022/12/13 06:03:19;;;;;;;19.20;12.80;;;-1.10;99.90;;;;;;5005591;28;20567;-52
2022/12/13 06:05:45;;;;;;;20.57;13.07;;;-1.10;99.90;;;;;;5005550;28;20567;-53
2022/12/13 06:08:11;;;;;;;21.40;13.47;;;-1.10;99.90;;;;;;5006601;28;20761;-53
2022/12/13 06:10:36;;;;;;;19.20;12.90;;;-1.10;99.90;;;;;;5015321;28;20206;-52
2022/12/13 06:13:03;;;;;;;22.50;14.10;;;-1.00;99.90;;;;;;5008481;28;20196;-52
2022/12/13 06:15:29;;;;;;;21.97;13.33;;;-1.10;99.90;;;;;;5005060;28;20204;-52
2022/12/13 06:17:54;;;;;;;24.20;12.93;;;-1.10;99.90;;;;;;5009789;28;20227;-51
2022/12/13 06:20:20;;;;;;;21.03;13.40;;;-1.10;99.90;;;;;;5007830;28;20276;-51
2022/12/13 06:22:45;;;;;;;18.40;13.37;;;-1.20;99.90;;;;;;5009205;28;20199;-52
2022/12/13 06:25:11;;;;;;;21.07;13.60;;;-1.20;99.90;;;;;;5009459;28;20343;-52
2022/12/13 06:27:36;;;;;;;19.07;14.07;;;-1.20;99.90;;;;;;5009226;28;20294;-51
2022/12/13 06:30:02;;;;;;;18.30;13.27;;;-1.20;99.90;;;;;;5009269;28;20207;-52
2022/12/13 06:32:28;;;;;;;21.43;12.90;;;-1.20;99.90;;;;;;5007490;28;20209;-52
2022/12/13 06:34:53;;;;;;;23.43;13.83;;;-1.20;99.90;;;;;;5009962;28;20257;-52
2022/12/13 06:37:19;;;;;;;23.23;14.87;;;-1.20;99.90;;;;;;5009828;28;20701;-51
2022/12/13 06:39:45;;;;;;;23.53;15.30;;;-1.20;99.90;;;;;;5009777;28;20261;-51
2022/12/13 06:42:16;;;;;;;22.23;15.07;;;-1.20;99.90;;;;;;5011337;28;20548;-51
2022/12/13 06:44:42;;;;;;;20.43;12.67;;;-1.20;99.90;;;;;;5000758;28;20231;-51
2022/12/13 06:47:07;;;;;;;22.60;14.20;;;-1.20;99.90;;;;;;5009523;28;20252;-51
2022/12/13 06:49:33;;;;;;;21.87;14.77;;;-1.30;99.90;;;;;;5009749;28;20693;-51
2022/12/13 06:51:58;;;;;;;23.50;15.33;;;-1.30;99.90;;;;;;5007107;28;20214;-52
2022/12/13 06:54:24;;;;;;;20.93;13.27;;;-1.40;99.90;;;;;;5009080;28;20638;-52
2022/12/13 06:56:49;;;;;;;29.03;17.73;;;-1.40;99.90;;;;;;5008777;28;20225;-51
2022/12/13 06:59:14;;;;;;;21.13;14.97;;;-1.50;99.90;;;;;;5011690;28;20671;-51
2022/12/13 07:01:40;;;;;;;23.17;12.60;;;-1.50;99.90;;;;;;5010646;28;20207;-52
2022/12/13 07:04:07;;;;;;;24.47;15.37;;;-1.50;99.90;;;;;;5004488;28;20207;-52
2022/12/13 07:06:33;;;;;;;22.97;14.87;;;-1.50;99.90;;;;;;5018514;28;20215;-51
2022/12/13 07:08:58;;;;;;;26.50;18.07;;;-1.50;99.90;;;;;;5009309;28;20663;-52
2022/12/13 07:11:27;;;;;;;29.03;18.37;;;-1.50;99.90;;;;;;5009291;28;20250;-52
2022/12/13 07:13:53;;;;;;;27.10;17.50;;;-1.50;99.90;;;;;;5009253;28;20666;-52
2022/12/13 07:16:20;;;;;;;27.50;17.63;;;-1.40;99.90;;;;;;5009494;28;21052;-51
2022/12/13 07:18:45;;;;;;;27.47;17.93;;;-1.40;99.90;;;;;;5006805;28;20250;-52
2022/12/13 07:21:13;;;;;;;24.07;16.93;;;-1.30;99.90;;;;;;5008989;28;20215;-52
2022/12/13 07:23:40;;;;;;;30.33;17.57;;;-1.40;99.90;;;;;;5008532;28;20234;-53
2022/12/13 07:26:07;;;;;;;31.73;18.70;;;-1.30;99.90;;;;;;5008650;28;20216;-52
2022/12/13 07:28:36;;;;;;;23.80;17.20;;;-1.30;99.90;;;;;;5007683;28;20252;-52
2022/12/13 07:31:04;;;;;;;24.83;17.27;;;-1.30;99.90;;;;;;5008826;28;20240;-52
2022/12/13 07:33:30;;;;;;;26.80;17.27;;;-1.40;99.90;;;;;;5008778;28;20786;-51
2022/12/13 07:36:03;;;;;;;28.43;17.40;;;-1.50;99.90;;;;;;5011493;28;20203;-51
2022/12/13 07:38:28;;;;;;;30.33;19.17;;;-1.40;99.90;;;;;;5006488;28;20211;-52
2022/12/13 07:40:56;;;;;;;29.37;18.13;;;-1.40;99.90;;;;;;5007938;28;20203;-52
2022/12/13 07:43:22;;;;;;;28.70;18.53;;;-1.50;99.90;;;;;;5016984;28;20843;-54
2022/12/13 07:45:48;;;;;;;22.97;16.73;;;-1.50;99.90;;;;;;5024833;28;20633;-53
2022/12/13 07:48:13;;;;;;;26.57;18.10;;;-1.50;99.90;;;;;;5019089;28;20306;-52
2022/12/13 07:50:39;;;;;;;28.53;18.63;;;-1.50;99.90;;;;;;5002279;28;20192;-52
2022/12/13 07:53:06;;;;;;;30.47;18.93;;;-1.50;99.90;;;;;;5012175;28;20203;-52
2022/12/13 07:55:33;;;;;;;27.73;18.47;;;-1.50;99.90;;;;;;5005262;28;20542;-52
2022/12/13 07:58:06;;;;;;;30.70;18.60;;;-1.50;99.90;;;;;;5008703;28;20219;-52
2022/12/13 08:00:32;;;;;;;26.07;17.53;;;-1.50;99.90;;;;;;5005995;28;20236;-52
2022/12/13 08:02:59;;;;;;;31.97;18.40;;;-1.40;99.90;;;;;;5006513;28;20662;-52
2022/12/13 08:05:24;;;;;;;35.17;20.30;;;-1.40;99.90;;;;;;5007826;28;20200;-51
2022/12/13 08:07:49;;;;;;;31.80;18.93;;;-1.40;99.90;;;;;;5020189;28;20226;-52
2022/12/13 08:10:15;;;;;;;25.70;17.30;;;-1.40;99.90;;;;;;5003897;28;20204;-52
2022/12/13 08:12:40;;;;;;;28.10;18.20;;;-1.40;99.90;;;;;;5006303;28;20209;-52
2022/12/13 08:15:06;;;;;;;29.43;16.40;;;-1.30;99.90;;;;;;5007807;28;20294;-52
2022/12/13 08:17:33;;;;;;;31.97;18.17;;;-1.20;99.90;;;;;;5010825;28;20208;-52
2022/12/13 08:19:58;;;;;;;30.20;18.13;;;-1.20;99.90;;;;;;5005572;28;20199;-52
2022/12/13 08:22:24;;;;;;;28.53;17.50;;;-1.20;99.90;;;;;;5007939;28;20205;-52
2022/12/13 08:24:49;;;;;;;29.40;18.37;;;-1.20;99.90;;;;;;5005568;28;20203;-52
2022/12/13 08:27:15;;;;;;;25.73;18.17;;;-1.30;99.90;;;;;;5008005;28;20219;-51
2022/12/13 08:29:40;;;;;;;26.67;17.87;;;-1.30;99.90;;;;;;5008204;28;20587;-51
2022/12/13 08:32:08;;;;;;;24.67;17.07;;;-1.20;99.90;;;;;;5008682;28;20647;-51
2022/12/13 08:34:34;;;;;;;28.77;18.40;;;-1.10;99.90;;;;;;5004559;28;20302;-52
2022/12/13 08:37:00;;;;;;;26.30;17.60;;;-1.10;99.90;;;;;;5011394;28;20295;-52
2022/12/13 08:39:25;;;;;;;31.83;18.73;;;-1.00;99.90;;;;;;5004838;28;20196;-52
2022/12/13 08:41:51;;;;;;;27.10;17.40;;;-1.10;99.90;;;;;;5008039;28;20225;-52
2022/12/13 08:44:16;;;;;;;23.37;17.10;;;-1.10;99.90;;;;;;5007865;28;20201;-54
2022/12/13 08:46:41;;;;;;;28.40;18.80;;;-1.10;99.90;;;;;;5006227;28;20667;-51
2022/12/13 08:49:07;;;;;;;29.10;18.67;;;-1.10;99.90;;;;;;5008445;28;20215;-51
2022/12/13 08:51:32;;;;;;;28.83;17.43;;;-1.20;99.90;;;;;;5005700;28;20208;-52
2022/12/13 08:53:58;;;;;;;28.47;18.07;;;-1.10;99.90;;;;;;5007099;28;20690;-51
2022/12/13 08:56:23;;;;;;;25.17;16.80;;;-1.00;99.90;;;;;;5005878;28;20196;-51
2022/12/13 08:58:52;;;;;;;21.63;15.60;;;-0.90;99.90;;;;;;5006524;28;20200;-51
2022/12/13 09:01:18;;;;;;;25.83;16.70;;;-0.80;99.90;;;;;;5006696;28;20265;-51
2022/12/13 09:03:43;;;;;;;27.87;16.80;;;-0.70;99.90;;;;;;5005447;28;20196;-51
2022/12/13 09:06:12;;;;;;;32.87;18.77;;;-0.80;99.90;;;;;;5007135;28;20205;-51
2022/12/13 09:08:38;;;;;;;25.87;16.03;;;-0.80;99.90;;;;;;5006827;28;20220;-52
2022/12/13 09:11:04;;;;;;;23.90;16.13;;;-0.80;99.90;;;;;;4955110;28;20201;-52
2022/12/13 09:13:32;;;;;;;22.60;16.40;;;-0.70;99.90;;;;;;5016510;28;20270;-51
2022/12/13 09:15:58;;;;;;;29.77;17.17;;;-0.60;99.90;;;;;;5006035;28;20197;-51
2022/12/13 09:18:24;;;;;;;23.33;16.43;;;-0.70;99.90;;;;;;5006751;28;20211;-51
2022/12/13 09:20:49;;;;;;;25.00;17.20;;;-0.70;99.90;;;;;;5006195;28;20212;-51
2022/12/13 09:23:15;;;;;;;24.27;16.30;;;-0.70;99.90;;;;;;5008912;28;20295;-51
2022/12/13 09:25:41;;;;;;;26.23;17.47;;;-0.80;99.90;;;;;;5003178;28;20220;-50
2022/12/13 09:28:08;;;;;;;26.67;17.87;;;-0.80;99.90;;;;;;5008968;28;20223;-51
2022/12/13 09:30:35;;;;;;;27.97;18.00;;;-0.80;99.90;;;;;;5007329;28;20211;-51
2022/12/13 09:33:00;;;;;;;26.13;16.63;;;-0.90;99.90;;;;;;5003643;28;20258;-51
2022/12/13 09:35:26;;;;;;;28.60;17.83;;;-0.90;99.90;;;;;;5015297;28;20199;-51
2022/12/13 09:37:51;;;;;;;25.13;16.33;;;-0.90;99.90;;;;;;5007012;28;20280;-51
2022/12/13 09:40:21;;;;;;;27.43;16.83;;;-0.90;99.90;;;;;;5004837;28;20200;-51
2022/12/13 09:42:53;;;;;;;26.27;17.80;;;-0.90;99.90;;;;;;5005940;28;20295;-51
2022/12/13 09:45:18;;;;;;;29.67;17.60;;;-0.80;99.90;;;;;;5005948;28;20265;-52
2022/12/13 09:47:47;;;;;;;24.67;17.17;;;-0.70;99.90;;;;;;5005728;28;20709;-51
2022/12/13 09:50:18;;;;;;;26.77;16.73;;;-0.60;99.90;;;;;;5008294;28;20204;-52
2022/12/13 09:52:45;;;;;;;26.53;18.03;;;-0.60;99.90;;;;;;5003082;28;20292;-51
2022/12/13 09:55:19;;;;;;;24.67;15.80;;;-0.60;99.90;;;;;;5007941;28;20216;-51
2022/12/13 09:57:46;;;;;;;22.97;15.27;;;-0.60;99.90;;;;;;5006636;28;20228;-51
2022/12/13 10:00:15;;;;;;;25.70;16.80;;;-0.60;99.90;;;;;;5012266;28;20613;-60
2022/12/13 10:02:47;;;;;;;27.77;15.80;;;-0.60;99.90;;;;;;5017680;28;20600;-51
2022/12/13 10:05:21;;;;;;;23.90;16.30;;;-0.60;99.90;;;;;;5015858;28;20208;-51
2022/12/13 10:07:47;;;;;;;24.20;16.33;;;-0.60;99.90;;;;;;5009399;28;20576;-51
2022/12/13 10:10:13;;;;;;;24.47;16.63;;;-0.60;99.90;;;;;;5012580;28;20668;-51
2022/12/13 10:12:41;;;;;;;28.40;16.93;;;-0.60;99.90;;;;;;5005371;28;20206;-52
2022/12/13 10:15:09;;;;;;;23.17;14.93;;;-0.60;99.90;;;;;;5016750;28;20197;-51
2022/12/13 10:17:39;;;;;;;24.93;17.70;;;-0.70;99.90;;;;;;5015715;28;20200;-52
2022/12/13 10:20:06;;;;;;;20.67;16.33;;;-0.80;99.90;;;;;;5018280;28;20265;-52
2022/12/13 10:22:32;;;;;;;23.97;15.63;;;-0.80;99.90;;;;;;5017160;28;20587;-53
2022/12/13 10:25:03;;;;;;;25.67;15.73;;;-0.70;99.90;;;;;;5017218;28;20726;-52
2022/12/13 10:27:35;;;;;;;22.50;15.87;;;-0.70;99.90;;;;;;5013872;28;20212;-52
2022/12/13 10:30:11;;;;;;;22.53;15.50;;;-0.70;99.90;;;;;;5021666;28;20692;-52
2022/12/13 10:33:01;;;;;;;21.87;15.37;;;-0.70;99.90;;;;;;5026908;28;20202;-52
2022/12/13 10:35:29;;;;;;;23.40;15.63;;;-0.70;99.90;;;;;;5026516;28;21007;-51
2022/12/13 10:37:58;;;;;;;20.20;14.30;;;-0.60;99.90;;;;;;5021844;28;20208;-51
2022/12/13 10:40:33;;;;;;;24.30;15.50;;;-0.60;99.90;;;;;;5007706;28;20245;-53
2022/12/13 10:43:28;;;;;;;21.00;14.77;;;-0.60;99.90;;;;;;5021517;28;20203;-52
2022/12/13 10:45:57;;;;;;;20.20;13.70;;;-0.60;99.90;;;;;;5019237;28;20365;-52
2022/12/13 10:48:32;;;;;;;20.30;13.73;;;-0.50;99.90;;;;;;5025389;28;20212;-52
2022/12/13 10:51:01;;;;;;;20.43;14.43;;;-0.40;99.90;;;;;;5026419;28;20250;-52
2022/12/13 10:53:31;;;;;;;18.27;12.47;;;-0.30;99.90;;;;;;5027578;28;20210;-53
2022/12/13 10:55:58;;;;;;;21.33;14.10;;;-0.30;99.90;;;;;;5026980;28;20216;-53
2022/12/13 10:58:34;;;;;;;22.93;13.27;;;-0.20;99.90;;;;;;5018359;28;20653;-53
2022/12/13 11:01:19;;;;;;;20.67;13.73;;;-0.20;99.90;;;;;;5025001;28;20933;-52
2022/12/13 11:04:02;;;;;;;18.33;13.10;;;-0.20;99.90;;;;;;5019369;28;20200;-52
2022/12/13 11:06:40;;;;;;;20.47;12.83;;;-0.30;99.90;;;;;;5029471;28;20245;-56
2022/12/13 11:09:23;;;;;;;18.37;12.63;;;-0.20;99.90;;;;;;5018659;28;21012;-57
2022/12/13 11:11:51;;;;;;;17.63;12.53;;;-0.20;99.90;;;;;;5017222;28;20212;-57
2022/12/13 11:14:19;;;;;;;22.07;13.33;;;-0.10;99.90;;;;;;5018783;28;20311;-56
2022/12/13 11:16:50;;;;;;;16.87;12.10;;;-0.20;99.90;;;;;;5018702;28;20270;-56
2022/12/13 11:19:26;;;;;;;17.03;10.93;;;-0.20;99.90;;;;;;5018729;28;20204;-56
2022/12/13 11:21:53;;;;;;;19.73;12.37;;;0.00;99.90;;;;;;5018640;28;20214;-56
2022/12/13 11:24:27;;;;;;;19.13;12.43;;;0.10;99.90;;;;;;5018783;28;20661;-56
2022/12/13 11:26:57;;;;;;;18.40;13.67;;;0.20;99.90;;;;;;5016470;28;20785;-60
2022/12/13 11:29:41;;;;;;;21.27;14.67;;;0.20;99.90;;;;;;5018228;28;20230;-55
2022/12/13 11:32:30;;;;;;;17.07;11.83;;;0.10;99.90;;;;;;5013395;28;20250;-57
2022/12/13 11:35:08;;;;;;;16.43;11.73;;;0.00;99.90;;;;;;5018102;28;20207;-62
2022/12/13 11:37:47;;;;;;;17.47;12.50;;;0.00;99.90;;;;;;5018462;28;20220;-55
2022/12/13 11:40:19;;;;;;;18.60;13.57;;;0.10;99.90;;;;;;5018854;28;20216;-56
2022/12/13 11:42:57;;;;;;;18.23;12.57;;;0.20;99.90;;;;;;5013617;28;20199;-56
2022/12/13 11:45:36;;;;;;;18.37;12.57;;;0.30;99.90;;;;;;5017992;28;20209;-57
2022/12/13 11:48:14;;;;;;;19.13;13.33;;;0.10;99.90;;;;;;5017725;28;20777;-58
2022/12/13 11:50:43;;;;;;;19.57;12.40;;;0.20;99.90;;;;;;5018204;28;20202;-55
2022/12/13 11:53:26;;;;;;;18.70;12.77;;;0.10;99.90;;;;;;5017827;28;20385;-56
2022/12/13 11:55:59;;;;;;;18.87;12.80;;;0.30;99.90;;;;;;5018862;28;20240;-57
2022/12/13 11:58:43;;;;;;;18.50;11.90;;;0.50;99.90;;;;;;5026564;28;20236;-56
2022/12/13 12:01:16;;;;;;;17.60;11.17;;;0.70;99.90;;;;;;5027021;28;20216;-56
2022/12/13 12:03:49;;;;;;;18.87;12.50;;;0.70;99.90;;;;;;5026345;28;20208;-56
2022/12/13 12:06:20;;;;;;;14.23;11.00;;;0.80;99.90;;;;;;5016264;28;20737;-57
2022/12/13 12:08:58;;;;;;;15.00;12.17;;;0.80;99.90;;;;;;5017358;28;20310;-57
2022/12/13 12:11:33;;;;;;;20.37;11.87;;;1.00;99.90;;;;;;5018119;28;20658;-56
2022/12/13 12:14:47;;;;;;;18.63;11.93;;;1.20;99.90;;;;;;5015600;28;20213;-57
2022/12/13 12:17:14;;;;;;;15.63;10.97;;;1.40;99.90;;;;;;4976080;28;20731;-57
2022/12/13 12:19:43;;;;;;;17.70;10.40;;;1.30;99.90;;;;;;4972776;28;20216;-56
2022/12/13 12:22:38;;;;;;;14.47;9.73;;;1.30;99.90;;;;;;4994131;28;20221;-56
2022/12/13 12:25:20;;;;;;;16.00;10.93;;;1.20;99.90;;;;;;5021803;28;20334;-55
2022/12/13 12:28:05;;;;;;;13.80;9.20;;;1.10;99.90;;;;;;5026708;28;20623;-57
2022/12/13 12:30:57;;;;;;;14.43;9.93;;;0.80;99.90;;;;;;5021447;28;20198;-56
2022/12/13 12:33:37;;;;;;;14.90;11.27;;;0.70;99.90;;;;;;5015133;28;20213;-59
2022/12/13 12:36:16;;;;;;;15.10;9.37;;;0.60;99.90;;;;;;5025242;28;20762;-57
2022/12/13 12:39:18;;;;;;;16.23;11.07;;;0.50;99.90;;;;;;5018552;28;20215;-64
2022/12/13 12:42:09;;;;;;;14.90;10.17;;;0.40;99.90;;;;;;5016711;28;20203;-56
2022/12/13 12:44:47;;;;;;;15.77;11.17;;;0.30;99.90;;;;;;5019588;28;20212;-56